9IN8 weather

Green Field
Churubusco, Indiana, United States

Public forecast

Using degrees Fahrenheit for public forecast. Weather courtesy of forecast.io.

METAR (pilot weather report)

Closest report is De Kalb County Airport, 14.1 nm (26.0 km) ENE. Retrieved 2019/04/26 03:35 UTC (0 seconds ago):

KGWB 260335Z AUTO 02007KT 4SM RA OVC003 12/12 A2959 RMK AO2 P0010

TAF (pilot weather forecast)

Forecast is more than 12 hours old.

Closest forecast is Fort Wayne International Airport, 16.8 nm (31.0 km) SSE. Retrieved 2019/04/25 00:30 UTC (1 day ago):

TAF KFWA 252328Z 2600/2624 07005KT 2SM SHRA BR VCTS OVC007CB TEMPO 2600/2604 1SM +SHRA OVC004 FM260700 33012G22KT 5SM SHRA BR OVC005 FM261500 33015G25KT P6SM BKN020 FM261700 34020G30KT P6SM SCT035